Time;durP1;ratioP1;P1;durP2;ratioP2;P2;SDS_P1;SDS_P2;PMS_P1;PMS_P2;Temp;Humidity;BMP_temperature;BMP_pressure;BME280_temperature;BME280_humidity;BME280_pressure;Samples;Min_cycle;Max_cycle;Signal;HPM_P1;HPM_P2
2020/12/24 00:00:44;;;;;;;0.57;0.15;;;21.70;46.70;;;;;;5036084;28;20021;-50
2020/12/24 00:03:10;;;;;;;1.08;0.20;;;21.60;46.60;;;;;;5035694;28;20033;-47
2020/12/24 00:05:35;;;;;;;0.82;0.10;;;21.70;46.70;;;;;;5031734;28;20608;-48
2020/12/24 00:08:01;;;;;;;0.28;0.10;;;21.60;46.70;;;;;;5032341;28;20026;-49
2020/12/24 00:10:26;;;;;;;0.85;0.20;;;21.60;46.70;;;;;;5031416;28;20025;-47
2020/12/24 00:12:52;;;;;;;1.08;0.10;;;21.60;46.60;;;;;;5036563;28;20021;-48
2020/12/24 00:15:19;;;;;;;1.30;0.10;;;21.60;46.60;;;;;;5041014;28;20105;-48
2020/12/24 00:17:44;;;;;;;0.30;0.10;;;21.60;46.50;;;;;;5036094;28;20443;-47
2020/12/24 00:20:11;;;;;;;1.08;0.10;;;21.60;46.50;;;;;;5040039;28;20140;-46
2020/12/24 00:22:37;;;;;;;1.00;0.10;;;21.60;46.60;;;;;;5034966;28;20076;-46
2020/12/24 00:25:03;;;;;;;1.05;0.10;;;21.60;46.60;;;;;;5031359;28;20056;-47
2020/12/24 00:27:28;;;;;;;0.63;0.10;;;21.60;46.60;;;;;;5041015;28;20099;-47
2020/12/24 00:29:54;;;;;;;1.75;0.15;;;21.50;46.60;;;;;;5036712;28;20091;-48
2020/12/24 00:32:19;;;;;;;0.38;0.10;;;21.50;46.50;;;;;;5029397;28;20093;-47
2020/12/24 00:34:45;;;;;;;0.43;0.10;;;21.50;46.50;;;;;;5030745;28;20033;-43
2020/12/24 00:37:10;;;;;;;1.02;0.20;;;21.50;46.50;;;;;;5033113;28;20414;-48
2020/12/24 00:39:36;;;;;;;0.30;0.10;;;21.50;46.50;;;;;;5031223;28;20044;-48
2020/12/24 00:42:02;;;;;;;0.75;0.10;;;21.50;46.60;;;;;;5043194;28;20028;-46
2020/12/24 00:44:27;;;;;;;1.40;0.17;;;21.50;46.60;;;;;;5040899;28;20040;-49
2020/12/24 00:46:53;;;;;;;2.17;0.10;;;21.50;46.50;;;;;;5033537;28;20025;-49
2020/12/24 00:49:18;;;;;;;0.57;0.10;;;21.50;46.50;;;;;;5030372;28;20437;-44
2020/12/24 00:51:44;;;;;;;0.75;0.13;;;21.50;46.40;;;;;;5034347;28;20025;-45
2020/12/24 00:54:10;;;;;;;0.55;0.20;;;21.50;46.40;;;;;;5031253;28;20053;-47
2020/12/24 00:56:36;;;;;;;3.05;0.20;;;21.50;46.50;;;;;;5031628;28;20032;-49
2020/12/24 00:59:01;;;;;;;0.77;0.20;;;21.40;46.50;;;;;;5029809;28;20029;-45
2020/12/24 01:01:27;;;;;;;1.02;0.20;;;21.40;46.40;;;;;;5034758;28;20402;-47
2020/12/24 01:03:52;;;;;;;0.50;0.10;;;21.40;46.40;;;;;;5031780;28;20045;-44
2020/12/24 01:06:18;;;;;;;0.77;0.10;;;21.40;46.40;;;;;;5032979;28;20021;-49
2020/12/24 01:08:44;;;;;;;0.38;0.08;;;21.40;46.50;;;;;;5030462;28;20040;-47
2020/12/24 01:11:10;;;;;;;0.35;0.10;;;21.40;46.40;;;;;;5032616;28;20034;-47
2020/12/24 01:13:36;;;;;;;0.70;0.10;;;21.40;46.50;;;;;;5028704;28;20033;-46
2020/12/24 01:16:01;;;;;;;0.70;0.13;;;21.40;46.50;;;;;;5029023;28;20037;-45
2020/12/24 01:18:27;;;;;;;0.40;0.10;;;21.40;46.30;;;;;;5032592;28;20033;-48
2020/12/24 01:20:53;;;;;;;1.02;0.20;;;21.40;46.40;;;;;;5037879;28;20036;-48
2020/12/24 01:23:19;;;;;;;0.73;0.10;;;21.40;46.40;;;;;;5046003;28;20449;-47
2020/12/24 01:25:44;;;;;;;0.32;0.10;;;21.40;46.40;;;;;;5029731;28;20025;-45
2020/12/24 01:28:10;;;;;;;0.50;0.10;;;21.30;46.40;;;;;;5011527;28;20036;-49
2020/12/24 01:30:36;;;;;;;0.68;0.10;;;21.30;46.40;;;;;;5036525;28;20029;-49
2020/12/24 01:33:02;;;;;;;0.82;0.10;;;21.30;47.00;;;;;;5027100;28;20079;-45
2020/12/24 01:35:27;;;;;;;0.50;0.10;;;21.30;46.50;;;;;;5029129;28;20091;-47
2020/12/24 01:37:54;;;;;;;0.82;0.10;;;21.30;46.50;;;;;;5035817;28;20115;-46
2020/12/24 01:40:19;;;;;;;0.93;0.10;;;21.30;46.50;;;;;;5029576;28;20068;-46
2020/12/24 01:42:48;;;;;;;0.45;0.10;;;21.30;46.50;;;;;;5029762;28;20072;-44
2020/12/24 01:45:14;;;;;;;0.77;0.20;;;21.30;46.50;;;;;;5028347;28;20087;-43
2020/12/24 01:47:39;;;;;;;0.63;0.10;;;21.30;46.50;;;;;;5029484;28;20075;-47
2020/12/24 01:50:05;;;;;;;0.52;0.10;;;21.30;46.50;;;;;;5030006;28;20090;-47
2020/12/24 01:52:32;;;;;;;1.05;0.15;;;21.30;46.40;;;;;;5036205;28;20025;-46
2020/12/24 01:54:58;;;;;;;1.10;0.10;;;21.30;46.40;;;;;;5029008;28;20038;-47
2020/12/24 01:57:24;;;;;;;1.52;0.10;;;21.30;46.40;;;;;;5030151;28;20051;-41
2020/12/24 01:59:50;;;;;;;1.40;0.10;;;21.20;46.30;;;;;;5014597;28;20036;-45
2020/12/24 02:02:16;;;;;;;0.40;0.10;;;21.30;46.30;;;;;;5029043;28;20041;-48
2020/12/24 02:04:41;;;;;;;0.30;0.10;;;21.20;46.70;;;;;;5029503;28;20042;-49
2020/12/24 02:07:07;;;;;;;0.70;0.10;;;21.20;46.30;;;;;;5043685;28;20056;-44
2020/12/24 02:09:32;;;;;;;0.82;0.10;;;21.20;46.30;;;;;;5029562;28;20022;-46
2020/12/24 02:11:58;;;;;;;0.55;0.15;;;21.20;46.40;;;;;;5026769;28;20493;-47
2020/12/24 02:14:24;;;;;;;0.90;0.15;;;21.20;46.40;;;;;;5029239;28;20035;-46
2020/12/24 02:16:50;;;;;;;1.95;0.10;;;21.20;46.40;;;;;;5029204;28;20104;-44
2020/12/24 02:19:16;;;;;;;1.83;0.10;;;21.20;46.30;;;;;;5032023;28;20040;-44
2020/12/24 02:21:41;;;;;;;0.38;0.10;;;21.20;46.40;;;;;;5037222;28;20067;-49
2020/12/24 02:24:08;;;;;;;0.52;0.10;;;21.20;46.40;;;;;;5032516;28;20437;-49
2020/12/24 02:26:33;;;;;;;0.50;0.10;;;21.20;46.30;;;;;;5036956;28;20103;-46
2020/12/24 02:28:59;;;;;;;0.88;0.10;;;21.20;46.30;;;;;;5028856;28;20081;-48
2020/12/24 02:31:25;;;;;;;0.57;0.10;;;21.10;46.40;;;;;;5038063;28;20033;-48
2020/12/24 02:33:50;;;;;;;0.95;0.20;;;21.10;46.40;;;;;;5026147;28;20056;-49
2020/12/24 02:36:16;;;;;;;0.95;0.10;;;21.10;46.30;;;;;;5031034;28;20030;-47
2020/12/24 02:38:42;;;;;;;0.40;0.10;;;21.10;46.30;;;;;;5027436;28;20131;-45
2020/12/24 02:41:08;;;;;;;0.52;0.03;;;21.10;46.30;;;;;;5032579;28;20037;-49
2020/12/24 02:43:33;;;;;;;0.45;0.10;;;21.10;46.30;;;;;;5036094;28;20037;-46
2020/12/24 02:45:59;;;;;;;0.30;0.10;;;21.10;46.30;;;;;;5043552;28;20049;-47
2020/12/24 02:48:24;;;;;;;0.55;0.10;;;21.10;46.30;;;;;;5033483;28;20013;-45
2020/12/24 02:50:50;;;;;;;0.45;0.10;;;21.10;46.20;;;;;;5039565;28;20033;-47
2020/12/24 02:53:15;;;;;;;0.75;0.10;;;21.10;46.20;;;;;;5028484;28;20026;-48
2020/12/24 02:55:41;;;;;;;0.38;0.08;;;21.10;46.20;;;;;;5032507;28;20029;-49
2020/12/24 02:58:06;;;;;;;1.25;0.20;;;21.10;46.20;;;;;;5033026;28;20109;-45
2020/12/24 03:00:32;;;;;;;1.05;0.20;;;21.10;46.10;;;;;;5028944;28;20029;-47
2020/12/24 03:02:58;;;;;;;0.93;0.17;;;21.10;46.10;;;;;;5030707;28;20537;-45
2020/12/24 03:05:24;;;;;;;0.30;0.10;;;21.10;46.10;;;;;;5034470;28;20037;-47
2020/12/24 03:07:50;;;;;;;0.90;0.10;;;21.10;46.50;;;;;;5027697;28;20421;-48
2020/12/24 03:10:16;;;;;;;0.70;0.10;;;21.10;46.10;;;;;;5030606;28;20030;-49
2020/12/24 03:12:42;;;;;;;1.30;0.10;;;21.00;46.00;;;;;;5029358;28;20414;-50
2020/12/24 03:15:07;;;;;;;0.50;0.10;;;21.00;46.00;;;;;;5029154;28;20041;-50
2020/12/24 03:17:33;;;;;;;0.50;0.10;;;21.10;46.10;;;;;;5029099;28;20037;-49
2020/12/24 03:19:59;;;;;;;0.57;0.10;;;21.10;46.10;;;;;;5010888;28;20033;-47
2020/12/24 03:22:24;;;;;;;1.02;0.10;;;21.00;46.00;;;;;;5017267;28;20048;-46
2020/12/24 03:24:50;;;;;;;0.70;0.10;;;21.00;46.10;;;;;;5035876;28;20108;-46
2020/12/24 03:27:15;;;;;;;1.25;0.10;;;21.00;46.00;;;;;;5032567;28;20029;-46
2020/12/24 03:29:41;;;;;;;0.93;0.10;;;21.00;46.10;;;;;;5036771;28;20048;-47
2020/12/24 03:32:06;;;;;;;0.43;0.10;;;21.00;46.10;;;;;;5041227;28;20018;-47
2020/12/24 03:34:32;;;;;;;1.02;0.20;;;21.00;46.10;;;;;;5034576;28;20029;-47
2020/12/24 03:36:57;;;;;;;0.77;0.10;;;21.00;46.00;;;;;;5031757;28;20141;-46
2020/12/24 03:39:23;;;;;;;2.42;0.20;;;21.00;46.00;;;;;;5067469;22;20040;-82
2020/12/24 03:42:09;;;;;;;0.90;0.30;;;21.00;45.90;;;;;;5065792;28;20063;-81
2020/12/24 03:44:53;;;;;;;0.77;0.10;;;21.00;45.80;;;;;;5047898;28;20044;-82
2020/12/24 03:47:18;;;;;;;0.57;0.20;;;21.00;45.60;;;;;;5062363;28;20076;-82
2020/12/24 03:49:44;;;;;;;1.20;0.30;;;21.00;45.80;;;;;;5027911;28;20025;-82
2020/12/24 03:52:10;;;;;;;0.57;0.10;;;20.90;45.80;;;;;;5036176;28;20024;-81
2020/12/24 03:54:35;;;;;;;1.38;0.22;;;21.00;45.90;;;;;;5028708;28;20438;-81
2020/12/24 03:57:01;;;;;;;0.55;0.10;;;20.90;46.00;;;;;;5036567;28;20020;-79
2020/12/24 03:59:26;;;;;;;0.55;0.10;;;21.00;45.90;;;;;;5029701;28;20063;-81
2020/12/24 04:01:52;;;;;;;1.92;0.20;;;21.00;45.90;;;;;;5024191;28;20121;-80
2020/12/24 04:04:18;;;;;;;0.75;0.08;;;21.00;46.00;;;;;;5028940;28;20064;-81
2020/12/24 04:06:43;;;;;;;0.95;0.20;;;20.90;45.90;;;;;;5044328;28;20450;-83
2020/12/24 04:09:09;;;;;;;0.40;0.10;;;20.90;45.90;;;;;;5026495;28;20055;-80
2020/12/24 04:11:34;;;;;;;0.68;0.10;;;20.90;45.90;;;;;;5043697;28;20025;-83
2020/12/24 04:14:00;;;;;;;1.98;0.10;;;20.90;45.80;;;;;;5044780;28;20097;-79
2020/12/24 04:16:26;;;;;;;1.25;0.28;;;20.90;45.90;;;;;;5044640;28;20436;-83
2020/12/24 04:18:52;;;;;;;0.82;0.10;;;20.90;46.00;;;;;;5042288;28;20149;-81
2020/12/24 04:21:19;;;;;;;1.63;0.10;;;20.90;46.00;;;;;;5027251;28;20089;-81
2020/12/24 04:23:44;;;;;;;0.40;0.13;;;20.90;46.00;;;;;;5017104;28;20379;-81
2020/12/24 04:26:18;;;;;;;0.95;0.10;;;20.90;46.00;;;;;;5018099;28;20048;-79
2020/12/24 04:28:43;;;;;;;2.05;0.20;;;20.90;46.00;;;;;;5025075;28;20021;-79
2020/12/24 04:31:09;;;;;;;1.00;0.10;;;20.90;46.00;;;;;;5024718;28;20032;-81
2020/12/24 04:33:37;;;;;;;0.70;0.10;;;20.90;46.00;;;;;;5013249;28;20040;-79
2020/12/24 04:36:02;;;;;;;0.73;0.10;;;20.90;46.00;;;;;;5053650;28;20047;-82
2020/12/24 04:38:28;;;;;;;0.57;0.13;;;20.80;45.90;;;;;;5035167;28;20040;-82
2020/12/24 04:40:57;;;;;;;0.47;0.10;;;20.90;45.90;;;;;;5010878;28;20037;-83
2020/12/24 04:43:24;;;;;;;1.23;0.10;;;20.90;46.40;;;;;;5029970;28;20052;-81
2020/12/24 04:45:50;;;;;;;0.50;0.17;;;20.90;45.90;;;;;;5040959;28;20539;-81
2020/12/24 04:48:18;;;;;;;0.90;0.20;;;20.80;45.80;;;;;;5024473;28;20544;-81
2020/12/24 04:50:48;;;;;;;1.48;0.10;;;20.90;46.00;;;;;;5030507;28;20462;-82
2020/12/24 04:53:14;;;;;;;1.80;0.40;;;20.80;46.00;;;;;;5026756;28;20029;-83
2020/12/24 04:55:40;;;;;;;2.10;0.20;;;20.80;45.80;;;;;;5041086;28;20517;-80
2020/12/24 04:58:08;;;;;;;1.17;0.10;;;20.80;45.70;;;;;;5026105;28;20025;-80
2020/12/24 05:00:35;;;;;;;1.13;0.28;;;20.80;45.80;;;;;;5016608;28;20029;-80
2020/12/24 05:03:06;;;;;;;0.47;0.10;;;20.80;45.90;;;;;;5025209;28;20025;-81
2020/12/24 05:05:32;;;;;;;1.00;0.08;;;20.80;45.90;;;;;;5034838;28;20025;-81
2020/12/24 05:08:01;;;;;;;1.10;0.17;;;20.80;45.70;;;;;;5039237;28;20027;-82
2020/12/24 05:10:26;;;;;;;0.30;0.00;;;20.80;45.80;;;;;;5026675;28;20594;-82
2020/12/24 05:12:52;;;;;;;0.73;0.10;;;20.80;45.70;;;;;;5020557;28;20025;-83
2020/12/24 05:15:29;;;;;;;1.58;0.10;;;20.80;45.70;;;;;;5022737;28;20032;-80
2020/12/24 05:18:12;;;;;;;0.43;0.10;;;20.80;45.70;;;;;;5042376;28;20544;-80
2020/12/24 05:20:39;;;;;;;0.85;0.10;;;20.80;45.70;;;;;;5026929;28;20028;-81
2020/12/24 05:23:15;;;;;;;1.30;0.30;;;20.80;45.80;;;;;;5017629;28;20068;-81
2020/12/24 05:25:42;;;;;;;0.38;0.10;;;20.80;45.70;;;;;;5015926;28;20029;-81
2020/12/24 05:28:08;;;;;;;1.85;0.10;;;20.80;45.70;;;;;;5025212;28;20029;-81
2020/12/24 05:30:34;;;;;;;1.33;0.08;;;20.80;45.80;;;;;;5042921;28;20097;-81
2020/12/24 05:33:00;;;;;;;0.55;0.10;;;20.70;45.70;;;;;;5024612;28;20040;-81
2020/12/24 05:35:27;;;;;;;1.25;0.15;;;20.70;45.60;;;;;;5038846;28;20037;-81
2020/12/24 05:37:54;;;;;;;1.27;0.10;;;20.70;45.50;;;;;;5041538;28;20053;-82
2020/12/24 05:40:30;;;;;;;1.10;0.10;;;20.70;45.70;;;;;;5041194;28;20037;-82
2020/12/24 05:43:01;;;;;;;0.77;0.10;;;20.70;45.60;;;;;;5039606;28;20035;-80
2020/12/24 05:45:31;;;;;;;0.90;0.10;;;20.70;45.60;;;;;;5027991;28;20029;-79
2020/12/24 05:48:07;;;;;;;0.82;0.30;;;20.70;45.60;;;;;;5035102;28;20025;-79
2020/12/24 05:50:34;;;;;;;0.70;0.10;;;20.70;45.60;;;;;;5042607;28;20029;-80
2020/12/24 05:53:08;;;;;;;0.65;0.10;;;20.70;45.60;;;;;;5021691;28;20029;-80
2020/12/24 05:55:35;;;;;;;0.75;0.10;;;20.70;45.60;;;;;;5043395;28;20065;-81
2020/12/24 05:58:01;;;;;;;1.00;0.30;;;20.70;45.70;;;;;;5034182;28;20039;-80
2020/12/24 06:00:35;;;;;;;0.40;0.00;;;20.70;45.80;;;;;;5013833;28;20036;-82
2020/12/24 06:03:14;;;;;;;0.50;0.10;;;20.70;45.70;;;;;;5026256;28;20036;-80
2020/12/24 06:05:59;;;;;;;0.40;0.10;;;20.70;45.70;;;;;;5014810;28;20021;-82
2020/12/24 06:08:29;;;;;;;0.93;0.10;;;20.70;45.70;;;;;;5015576;28;20107;-81
2020/12/24 06:11:06;;;;;;;0.93;0.10;;;20.70;45.70;;;;;;5047567;28;20033;-81
2020/12/24 06:13:41;;;;;;;0.85;0.10;;;20.70;45.80;;;;;;5020611;28;20033;-81
2020/12/24 06:16:09;;;;;;;0.15;0.00;;;20.70;45.80;;;;;;5011038;28;20040;-81
2020/12/24 06:18:37;;;;;;;0.30;0.00;;;20.70;45.70;;;;;;5024555;28;20025;-81
2020/12/24 06:21:02;;;;;;;0.40;0.00;;;20.70;45.80;;;;;;5023918;28;20682;-80
2020/12/24 06:23:35;;;;;;;0.85;0.10;;;20.70;45.80;;;;;;5023575;28;20021;-80
2020/12/24 06:26:04;;;;;;;1.90;0.10;;;20.60;45.80;;;;;;5034534;28;20032;-82
2020/12/24 06:28:33;;;;;;;0.38;0.10;;;20.60;45.70;;;;;;5010826;28;20030;-82
2020/12/24 06:31:00;;;;;;;1.27;0.10;;;20.60;45.70;;;;;;5021533;28;20021;-78
2020/12/24 06:33:30;;;;;;;0.30;0.08;;;20.70;45.80;;;;;;5041144;28;20048;-80
2020/12/24 06:35:57;;;;;;;0.50;0.00;;;20.60;45.80;;;;;;5042291;28;20045;-80
2020/12/24 06:38:46;;;;;;;0.35;0.00;;;20.70;45.80;;;;;;5036202;28;20040;-80
2020/12/24 06:41:29;;;;;;;0.70;0.10;;;20.60;45.80;;;;;;5016495;28;20021;-80
2020/12/24 06:43:55;;;;;;;0.68;0.10;;;20.70;45.80;;;;;;5040721;28;20063;-80
2020/12/24 06:46:21;;;;;;;0.50;0.00;;;20.80;45.60;;;;;;5040439;28;20029;-81
2020/12/24 06:49:01;;;;;;;0.95;0.20;;;20.80;45.50;;;;;;5010770;28;20399;-80
2020/12/24 06:51:45;;;;;;;0.38;0.00;;;21.00;45.40;;;;;;5040892;28;20025;-81
2020/12/24 06:54:19;;;;;;;1.00;0.10;;;21.10;45.20;;;;;;5027874;28;20034;-81
2020/12/24 06:56:44;;;;;;;0.63;0.00;;;21.20;45.50;;;;;;5024724;28;20033;-80
2020/12/24 06:59:18;;;;;;;0.40;0.10;;;21.30;44.80;;;;;;5026591;28;20029;-81
2020/12/24 07:01:59;;;;;;;0.98;0.10;;;21.40;44.70;;;;;;5037134;28;20159;-80
2020/12/24 07:04:38;;;;;;;0.30;0.05;;;21.40;44.70;;;;;;5054248;28;20036;-81
2020/12/24 07:07:04;;;;;;;0.30;0.00;;;21.50;44.80;;;;;;5017007;28;20091;-84
2020/12/24 07:09:30;;;;;;;0.60;0.00;;;21.50;44.90;;;;;;5019542;28;20060;-82
2020/12/24 07:11:55;;;;;;;0.73;0.10;;;21.50;45.00;;;;;;5020242;28;20044;-81
2020/12/24 07:14:25;;;;;;;0.38;0.10;;;21.50;45.00;;;;;;5021995;28;20033;-82
2020/12/24 07:16:52;;;;;;;0.85;0.15;;;21.50;45.10;;;;;;5028042;28;20035;-84
2020/12/24 07:19:19;;;;;;;0.60;0.10;;;21.50;45.30;;;;;;5033745;28;20053;-83
2020/12/24 07:21:52;;;;;;;0.80;0.10;;;21.50;45.10;;;;;;5029201;28;20479;-84
2020/12/24 07:24:29;;;;;;;0.98;0.10;;;21.50;44.80;;;;;;5037121;28;20090;-82
2020/12/24 07:26:59;;;;;;;0.50;0.10;;;21.60;44.70;;;;;;5034464;28;20037;-84
2020/12/24 07:29:26;;;;;;;0.50;0.10;;;21.60;44.60;;;;;;5021234;28;20017;-85
2020/12/24 07:31:53;;;;;;;0.90;0.10;;;21.70;44.50;;;;;;5039100;28;20053;-82
2020/12/24 07:34:33;;;;;;;0.98;0.17;;;21.60;44.50;;;;;;5006009;28;20033;-83
2020/12/24 07:36:59;;;;;;;0.43;0.10;;;21.70;44.50;;;;;;5035422;28;20029;-83
2020/12/24 07:39:25;;;;;;;1.85;0.15;;;21.60;44.60;;;;;;5013753;28;20411;-83
2020/12/24 07:41:51;;;;;;;0.65;0.10;;;21.60;44.70;;;;;;5022108;28;20031;-82
2020/12/24 07:44:18;;;;;;;1.60;0.20;;;21.60;44.90;;;;;;5020763;28;20025;-84
2020/12/24 07:46:45;;;;;;;1.60;0.20;;;21.60;45.00;;;;;;5008247;28;20378;-82
2020/12/24 07:49:11;;;;;;;1.83;0.30;;;21.50;45.00;;;;;;5006670;28;20112;-84
2020/12/24 07:51:36;;;;;;;1.35;0.22;;;21.50;44.90;;;;;;5034035;28;20021;-80
2020/12/24 07:54:15;;;;;;;0.70;0.20;;;21.50;44.80;;;;;;5041513;28;20084;-84
2020/12/24 07:56:45;;;;;;;0.65;0.17;;;21.50;44.70;;;;;;5038784;28;20093;-81
2020/12/24 07:59:12;;;;;;;1.20;0.30;;;21.50;44.70;;;;;;5025509;28;20041;-81
2020/12/24 08:01:38;;;;;;;2.03;0.30;;;21.40;44.50;;;;;;5038859;28;20014;-82
2020/12/24 08:04:05;;;;;;;0.75;0.20;;;21.40;44.40;;;;;;5055802;28;20025;-84
2020/12/24 08:06:32;;;;;;;1.38;0.30;;;21.40;44.50;;;;;;5041205;28;20025;-82
2020/12/24 08:09:10;;;;;;;0.50;0.15;;;21.40;44.70;;;;;;5040717;28;20092;-81
2020/12/24 08:11:36;;;;;;;0.63;0.20;;;21.40;44.80;;;;;;5058831;28;20084;-81
2020/12/24 08:14:03;;;;;;;1.85;0.20;;;21.30;44.80;;;;;;5057850;28;20044;-82
2020/12/24 08:16:32;;;;;;;0.65;0.20;;;21.40;44.90;;;;;;5025084;28;20030;-81
2020/12/24 08:19:23;;;;;;;2.63;0.40;;;21.40;44.90;;;;;;5039814;28;20040;-82
2020/12/24 08:22:01;;;;;;;3.33;0.28;;;21.30;44.70;;;;;;5036036;28;20060;-82
2020/12/24 08:24:27;;;;;;;1.48;0.10;;;21.30;44.60;;;;;;5022516;28;20112;-82
2020/12/24 08:26:54;;;;;;;0.60;0.20;;;21.20;44.70;;;;;;5030490;28;20048;-81
2020/12/24 08:29:20;;;;;;;2.92;0.50;;;21.30;44.90;;;;;;5025188;28;20025;-80
2020/12/24 08:31:46;;;;;;;6.60;0.30;;;21.20;44.90;;;;;;5041779;28;20033;-82
2020/12/24 08:34:12;;;;;;;1.52;0.30;;;21.20;44.90;;;;;;5024754;28;20063;-82
2020/12/24 08:36:59;;;;;;;2.80;0.30;;;21.20;44.90;;;;;;5038002;28;20061;-81
2020/12/24 08:39:24;;;;;;;3.08;0.30;;;21.20;45.00;;;;;;5034625;28;20040;-80
2020/12/24 08:41:53;;;;;;;2.33;0.50;;;21.20;45.00;;;;;;5037762;28;20033;-84
2020/12/24 08:44:19;;;;;;;2.67;0.20;;;21.20;45.00;;;;;;5024711;28;20029;-80
2020/12/24 08:46:46;;;;;;;2.17;0.50;;;21.10;45.00;;;;;;5024770;28;20493;-81
2020/12/24 08:49:24;;;;;;;4.40;0.30;;;21.10;45.00;;;;;;5024164;28;20020;-82
2020/12/24 08:52:06;;;;;;;1.73;0.57;;;21.10;45.10;;;;;;5038210;28;20022;-82
2020/12/24 08:54:31;;;;;;;4.97;0.40;;;21.10;45.10;;;;;;5039574;28;20029;-83
2020/12/24 08:56:57;;;;;;;1.92;0.60;;;21.10;45.10;;;;;;5040799;28;20066;-83
2020/12/24 08:59:23;;;;;;;2.30;0.90;;;21.10;45.10;;;;;;5040280;28;20035;-82
2020/12/24 09:01:48;;;;;;;6.43;0.70;;;21.10;45.10;;;;;;5041066;28;20089;-80
2020/12/24 09:04:17;;;;;;;3.28;1.02;;;21.10;45.20;;;;;;5018208;28;20021;-81
2020/12/24 09:06:44;;;;;;;2.28;1.10;;;21.10;45.20;;;;;;5021433;28;20402;-81
2020/12/24 09:09:26;;;;;;;5.18;1.52;;;21.10;45.20;;;;;;5019837;28;20025;-83
2020/12/24 09:11:53;;;;;;;3.17;1.27;;;21.10;45.20;;;;;;5015265;28;20018;-81
2020/12/24 09:14:21;;;;;;;2.75;1.38;;;21.10;45.20;;;;;;5014515;28;20111;-79
2020/12/24 09:16:58;;;;;;;3.05;1.70;;;21.00;45.10;;;;;;5023900;28;20493;-82
2020/12/24 09:19:25;;;;;;;4.57;1.92;;;21.00;45.20;;;;;;5039483;28;20451;-81
2020/12/24 09:21:58;;;;;;;2.03;1.10;;;21.00;45.20;;;;;;5024036;28;20051;-82
2020/12/24 09:24:26;;;;;;;3.25;1.58;;;21.00;45.20;;;;;;5039967;28;20029;-82
2020/12/24 09:26:56;;;;;;;5.57;1.90;;;21.00;45.20;;;;;;5040516;28;20100;-81
2020/12/24 09:29:24;;;;;;;2.10;1.38;;;21.00;45.20;;;;;;5041562;28;20084;-80
2020/12/24 09:31:59;;;;;;;2.30;1.35;;;21.00;45.20;;;;;;5027752;28;20390;-81
2020/12/24 09:34:25;;;;;;;3.45;1.63;;;21.00;45.20;;;;;;5006130;28;20028;-83
2020/12/24 09:36:51;;;;;;;2.28;1.35;;;21.00;45.20;;;;;;5033806;28;20059;-82
2020/12/24 09:39:18;;;;;;;2.80;1.42;;;21.00;45.20;;;;;;5022285;28;20030;-82
2020/12/24 09:41:45;;;;;;;2.67;1.40;;;21.00;45.20;;;;;;5051692;28;20050;-82
2020/12/24 09:44:12;;;;;;;2.33;1.60;;;21.00;45.20;;;;;;5025549;28;20060;-80
2020/12/24 09:46:38;;;;;;;3.10;1.40;;;21.10;45.10;;;;;;5021144;28;20071;-81
2020/12/24 09:49:04;;;;;;;2.20;1.25;;;21.20;45.00;;;;;;5018199;28;20026;-80
2020/12/24 09:51:35;;;;;;;2.38;0.95;;;21.30;44.80;;;;;;5040329;28;20027;-82
2020/12/24 09:54:01;;;;;;;3.03;1.90;;;21.40;44.60;;;;;;5040067;28;20086;-80
2020/12/24 09:56:27;;;;;;;3.53;1.48;;;21.50;44.40;;;;;;5009661;28;20030;-80
2020/12/24 09:58:53;;;;;;;2.38;1.30;;;21.60;44.30;;;;;;5030306;28;20029;-84
2020/12/24 10:01:18;;;;;;;2.13;1.13;;;21.70;44.20;;;;;;5047932;28;20247;-81
2020/12/24 10:03:45;;;;;;;3.05;1.42;;;21.70;44.00;;;;;;5027812;28;20021;-83
2020/12/24 10:06:11;;;;;;;2.15;0.90;;;21.80;43.90;;;;;;5045584;28;20020;-82
2020/12/24 10:08:36;;;;;;;1.75;0.77;;;21.90;43.90;;;;;;5047737;28;20085;-80
2020/12/24 10:11:02;;;;;;;1.85;0.98;;;21.90;43.80;;;;;;5064806;28;20033;-84
2020/12/24 10:13:27;;;;;;;2.25;1.02;;;21.90;43.80;;;;;;5033041;28;20025;-82
2020/12/24 10:15:53;;;;;;;2.22;1.20;;;22.00;43.70;;;;;;5046843;28;20065;-85
2020/12/24 10:18:19;;;;;;;1.35;0.77;;;22.00;43.70;;;;;;5019505;28;20021;-81
2020/12/24 10:20:44;;;;;;;2.30;1.23;;;22.00;43.70;;;;;;5020949;28;20104;-83
2020/12/24 10:23:10;;;;;;;1.70;0.90;;;22.00;44.20;;;;;;5032462;28;20071;-84
2020/12/24 10:25:37;;;;;;;2.47;1.08;;;22.00;43.80;;;;;;5015435;28;20029;-84
2020/12/24 10:28:03;;;;;;;1.58;0.73;;;21.90;43.80;;;;;;5013678;28;20030;-84
2020/12/24 10:30:29;;;;;;;1.88;0.57;;;22.00;43.90;;;;;;5020874;28;20116;-83
2020/12/24 10:32:54;;;;;;;1.75;1.05;;;21.90;43.90;;;;;;5039146;28;20056;-81
2020/12/24 10:35:20;;;;;;;1.70;0.95;;;21.90;44.00;;;;;;5024964;28;20074;-83
2020/12/24 10:37:46;;;;;;;3.20;1.05;;;21.80;44.00;;;;;;5040242;28;20100;-79
2020/12/24 10:40:11;;;;;;;3.40;1.23;;;21.80;44.00;;;;;;5020096;28;20032;-80
2020/12/24 10:42:38;;;;;;;2.17;0.98;;;21.80;44.10;;;;;;5013306;28;20448;-82
2020/12/24 10:45:04;;;;;;;2.75;1.15;;;21.70;44.10;;;;;;5040072;28;20037;-83
2020/12/24 10:47:30;;;;;;;3.15;1.05;;;21.70;44.20;;;;;;5001185;28;20021;-83
2020/12/24 10:49:55;;;;;;;2.15;0.77;;;21.70;44.30;;;;;;5017782;28;20025;-82
2020/12/24 10:52:21;;;;;;;2.58;1.05;;;21.70;44.30;;;;;;5011347;28;20025;-82
2020/12/24 10:54:48;;;;;;;2.45;0.82;;;21.70;44.40;;;;;;5029584;28;20075;-80
2020/12/24 10:57:13;;;;;;;1.85;0.77;;;21.70;44.40;;;;;;5021709;28;20056;-81
2020/12/24 10:59:39;;;;;;;1.85;0.63;;;21.60;44.40;;;;;;5030284;28;20417;-81
2020/12/24 11:02:04;;;;;;;4.05;0.95;;;21.60;44.50;;;;;;5017047;28;20040;-81
2020/12/24 11:04:30;;;;;;;2.05;0.77;;;21.50;44.50;;;;;;5016077;28;20132;-80
2020/12/24 11:06:56;;;;;;;1.88;0.98;;;21.50;44.60;;;;;;5001636;28;20500;-82
2020/12/24 11:09:22;;;;;;;1.45;0.73;;;21.50;44.50;;;;;;5049737;28;20032;-81
2020/12/24 11:11:47;;;;;;;2.28;0.80;;;21.50;44.60;;;;;;5017381;28;20028;-81
2020/12/24 11:14:13;;;;;;;2.50;1.20;;;21.50;45.20;;;;;;5015898;28;20029;-82
2020/12/24 11:16:39;;;;;;;1.45;0.50;;;21.50;44.70;;;;;;5017483;28;20402;-82
2020/12/24 11:19:05;;;;;;;2.58;0.85;;;21.50;44.70;;;;;;5007583;28;20040;-82
2020/12/24 11:21:31;;;;;;;1.33;0.80;;;21.40;44.70;;;;;;5009307;28;20476;-81
2020/12/24 11:23:57;;;;;;;2.55;0.63;;;21.40;44.80;;;;;;5002048;28;20025;-82
2020/12/24 11:26:24;;;;;;;2.47;0.82;;;21.40;44.80;;;;;;5019289;28;20029;-83
2020/12/24 11:28:53;;;;;;;2.72;0.70;;;21.40;44.80;;;;;;5014254;28;20022;-81
2020/12/24 11:31:32;;;;;;;1.55;0.50;;;21.30;44.80;;;;;;5028207;28;20026;-82
2020/12/24 11:33:59;;;;;;;1.15;0.50;;;21.30;44.90;;;;;;5041061;28;20028;-83
2020/12/24 11:36:26;;;;;;;4.07;0.70;;;21.30;44.90;;;;;;5034879;28;20513;-83
2020/12/24 11:38:52;;;;;;;1.60;0.80;;;21.20;44.90;;;;;;5028830;28;20041;-81
2020/12/24 11:41:21;;;;;;;1.48;0.52;;;21.20;44.90;;;;;;5031159;28;20075;-81
2020/12/24 11:43:47;;;;;;;1.60;0.70;;;21.20;44.90;;;;;;5033590;28;20447;-82
2020/12/24 11:46:13;;;;;;;2.28;0.60;;;21.20;45.00;;;;;;5051687;28;20063;-80
2020/12/24 11:48:40;;;;;;;2.35;0.73;;;21.20;44.90;;;;;;5017841;28;20517;-81
2020/12/24 11:51:10;;;;;;;3.47;0.60;;;21.20;45.00;;;;;;5027813;28;20035;-79
2020/12/24 11:53:37;;;;;;;1.80;0.65;;;21.20;45.00;;;;;;5032294;28;20041;-81
2020/12/24 11:56:03;;;;;;;2.55;0.60;;;21.20;45.00;;;;;;5039713;28;20025;-81
2020/12/24 11:58:28;;;;;;;1.70;0.60;;;21.10;44.80;;;;;;5057229;28;20037;-81
2020/12/24 12:00:54;;;;;;;2.45;0.43;;;21.10;45.00;;;;;;5013528;28;20144;-80
2020/12/24 12:03:20;;;;;;;1.60;0.70;;;21.10;45.10;;;;;;5036491;28;20028;-80
2020/12/24 12:05:45;;;;;;;1.10;0.50;;;21.10;45.50;;;;;;5024600;28;20113;-80
2020/12/24 12:08:11;;;;;;;2.00;0.70;;;21.10;45.50;;;;;;5039534;28;20017;-79
2020/12/24 12:10:36;;;;;;;1.55;0.68;;;21.10;45.50;;;;;;5009630;28;20099;-80
2020/12/24 12:13:03;;;;;;;1.10;0.47;;;21.10;45.40;;;;;;5013019;28;20040;-79
2020/12/24 12:15:29;;;;;;;1.80;0.32;;;21.10;45.40;;;;;;5026428;28;20025;-80
2020/12/24 12:17:55;;;;;;;2.97;0.40;;;21.10;45.40;;;;;;5041741;28;20037;-79
2020/12/24 12:20:20;;;;;;;2.92;0.63;;;21.10;45.40;;;;;;5025866;28;20556;-80
2020/12/24 12:22:47;;;;;;;2.20;0.50;;;21.10;45.40;;;;;;5025348;28;20055;-79
2020/12/24 12:25:13;;;;;;;3.10;0.70;;;21.10;45.50;;;;;;5038902;28;20082;-80
2020/12/24 12:27:39;;;;;;;2.03;0.60;;;21.30;45.30;;;;;;5038026;28;20033;-81
2020/12/24 12:30:05;;;;;;;6.25;1.00;;;21.50;45.10;;;;;;5033414;28;20029;-82
2020/12/24 12:32:31;;;;;;;3.20;1.15;;;21.70;44.70;;;;;;5013757;28;20515;-81
2020/12/24 12:34:57;;;;;;;3.95;0.90;;;21.80;44.40;;;;;;5040502;28;20029;-80
2020/12/24 12:37:22;;;;;;;3.65;1.35;;;21.80;44.90;;;;;;5042903;28;20021;-80
2020/12/24 12:39:49;;;;;;;2.00;1.00;;;21.80;44.40;;;;;;5042110;28;20055;-79
2020/12/24 12:42:14;;;;;;;3.60;1.38;;;21.80;44.40;;;;;;5043824;28;20474;-81
2020/12/24 12:44:40;;;;;;;3.63;1.60;;;21.90;44.40;;;;;;5027485;28;20090;-81
2020/12/24 12:47:05;;;;;;;3.45;1.02;;;21.90;44.30;;;;;;5043471;28;20029;-80
2020/12/24 12:49:31;;;;;;;2.25;1.20;;;21.90;44.20;;;;;;5040921;28;20017;-80